Time;durP1;ratioP1;P1;durP2;ratioP2;P2;SDS_P1;SDS_P2;PMS_P1;PMS_P2;Temp;Humidity;BMP_temperature;BMP_pressure;BME280_temperature;BME280_humidity;BME280_pressure;Samples;Min_cycle;Max_cycle;Signal;HPM_P1;HPM_P2
2021/05/16 00:00:21;;;;;;;6.65;2.13;;;;;;;16.69;52.43;99599.59;4957745;28;20051;-68
2021/05/16 00:02:48;;;;;;;4.72;2.53;;;;;;;16.62;52.39;99607.19;4965270;28;20094;-68
2021/05/16 00:05:18;;;;;;;3.75;2.25;;;;;;;16.49;53.23;99609.19;4966569;28;20066;-68
2021/05/16 00:07:46;;;;;;;4.70;2.20;;;;;;;16.56;52.48;99618.22;4968087;28;20049;-68
2021/05/16 00:10:16;;;;;;;4.03;2.72;;;;;;;16.53;53.08;99628.19;4955311;28;20402;-68
2021/05/16 00:12:43;;;;;;;3.55;2.28;;;;;;;16.46;53.79;99626.06;4955137;28;20071;-68
2021/05/16 00:15:15;;;;;;;5.82;2.30;;;;;;;16.53;53.82;99623.75;4965618;28;20426;-68
2021/05/16 00:17:42;;;;;;;4.93;1.95;;;;;;;16.55;53.30;99624.44;4955400;28;20047;-68
2021/05/16 00:20:14;;;;;;;2.15;1.77;;;;;;;16.61;53.56;99623.09;4955093;28;20069;-67
2021/05/16 00:22:41;;;;;;;6.47;2.10;;;;;;;16.56;53.62;99628.75;4955143;28;20528;-68
2021/05/16 00:25:12;;;;;;;5.18;2.72;;;;;;;16.63;53.29;99627.28;4938094;29;20114;-69
2021/05/16 00:27:41;;;;;;;8.38;2.38;;;;;;;16.74;52.64;99614.06;4955295;28;20043;-68
2021/05/16 00:30:11;;;;;;;9.13;1.80;;;;;;;16.72;53.09;99623.91;4954143;28;20035;-67
2021/05/16 00:32:38;;;;;;;3.92;1.50;;;;;;;16.65;53.34;99620.06;4955803;28;20039;-74
2021/05/16 00:35:07;;;;;;;3.78;2.00;;;;;;;16.61;53.59;99623.91;4938632;29;20075;-76
2021/05/16 00:37:35;;;;;;;2.78;2.10;;;;;;;16.64;53.58;99634.19;4959258;28;20046;-76
2021/05/16 00:40:04;;;;;;;4.32;2.35;;;;;;;16.63;53.85;99629.91;4955267;28;20035;-76
2021/05/16 00:42:31;;;;;;;4.18;2.05;;;;;;;16.71;53.55;99619.56;4956023;28;20122;-76
2021/05/16 00:45:03;;;;;;;7.32;2.28;;;;;;;16.72;53.81;99613.38;4960538;28;20102;-75
2021/05/16 00:47:30;;;;;;;4.70;1.77;;;;;;;16.79;53.63;99610.22;4958323;28;20055;-72
2021/05/16 00:49:58;;;;;;;5.80;2.08;;;;;;;16.86;53.33;99604.28;4955110;28;20047;-72
2021/05/16 00:52:26;;;;;;;4.60;2.05;;;;;;;16.82;53.39;99602.03;4961743;28;20097;-73
2021/05/16 00:54:55;;;;;;;6.13;2.35;;;;;;;16.81;53.69;99601.22;4955429;28;20062;-74
2021/05/16 00:57:23;;;;;;;2.40;1.90;;;;;;;16.80;53.48;99598.72;4972096;28;20051;-74
2021/05/16 00:59:50;;;;;;;9.57;2.45;;;;;;;16.85;53.71;99602.63;4962256;28;20122;-75
2021/05/16 01:02:18;;;;;;;3.15;1.67;;;;;;;16.76;53.64;99596.34;4968037;28;20049;-75
2021/05/16 01:04:45;;;;;;;3.05;1.77;;;;;;;16.81;53.53;99597.75;4960108;28;20106;-75
2021/05/16 01:07:12;;;;;;;4.35;1.95;;;;;;;16.91;52.84;99602.09;4958808;28;20043;-73
2021/05/16 01:09:39;;;;;;;5.00;1.77;;;;;;;16.99;52.72;99598.78;4937940;28;20102;-73
2021/05/16 01:12:08;;;;;;;2.53;1.85;;;;;;;16.99;52.74;99593.50;4954519;28;20134;-73
2021/05/16 01:14:44;;;;;;;4.85;1.90;;;;;;;17.06;52.64;99601.72;4937537;28;20130;-73
2021/05/16 01:17:11;;;;;;;3.05;1.88;;;;;;;17.00;53.09;99597.81;4954754;28;20055;-73
2021/05/16 01:19:39;;;;;;;3.78;1.70;;;;;;;16.98;53.07;99599.75;4954855;28;20482;-73
2021/05/16 01:22:07;;;;;;;2.92;1.38;;;;;;;16.96;53.14;99591.16;4944464;28;20049;-73
2021/05/16 01:24:37;;;;;;;2.80;1.52;;;;;;;16.97;52.59;99592.81;4945769;28;20047;-73
2021/05/16 01:27:15;;;;;;;4.72;1.20;;;;;;;16.96;52.32;99597.25;4954898;28;20044;-73
2021/05/16 01:29:43;;;;;;;4.65;1.42;;;;;;;16.96;52.45;99597.25;4950945;28;20043;-72
2021/05/16 01:32:11;;;;;;;4.03;1.60;;;;;;;17.01;51.76;99595.06;4955055;28;20098;-73
2021/05/16 01:34:43;;;;;;;2.03;1.23;;;;;;;17.10;51.13;99597.84;4952579;28;20047;-73
2021/05/16 01:37:11;;;;;;;3.65;1.52;;;;;;;17.07;51.01;99591.06;4937764;29;20043;-73
2021/05/16 01:39:41;;;;;;;5.25;2.10;;;;;;;16.98;50.92;99603.22;4954649;28;20517;-73
2021/05/16 01:42:09;;;;;;;3.00;1.33;;;;;;;16.85;51.81;99599.97;4957432;28;20126;-73
2021/05/16 01:44:38;;;;;;;3.60;1.30;;;;;;;16.92;51.76;99609.00;4963290;28;20043;-73
2021/05/16 01:47:05;;;;;;;3.45;1.42;;;;;;;16.80;52.49;99619.78;4964558;28;20044;-72
2021/05/16 01:49:44;;;;;;;5.38;1.60;;;;;;;16.73;53.77;99616.84;4951911;28;20039;-72
2021/05/16 01:52:11;;;;;;;4.68;1.83;;;;;;;16.82;53.95;99609.94;4950771;28;20094;-73
2021/05/16 01:54:39;;;;;;;4.65;1.73;;;;;;;16.78;54.39;99598.84;4951273;28;20071;-78
2021/05/16 01:57:08;;;;;;;5.10;2.28;;;;;;;16.69;54.56;99602.22;4951864;28;20052;-78
2021/05/16 01:59:36;;;;;;;5.15;1.40;;;;;;;16.66;54.80;99603.31;4951995;28;20085;-77
2021/05/16 02:02:05;;;;;;;5.93;2.28;;;;;;;16.62;54.99;99606.34;4933917;28;20051;-78
2021/05/16 02:04:34;;;;;;;3.33;1.73;;;;;;;16.59;55.17;99611.88;4950903;28;20045;-78
2021/05/16 02:07:01;;;;;;;3.40;1.42;;;;;;;16.60;55.20;99619.63;4943683;28;20086;-78
2021/05/16 02:09:36;;;;;;;3.60;1.50;;;;;;;16.51;55.59;99612.50;4933422;28;20050;-78
2021/05/16 02:12:04;;;;;;;7.13;2.15;;;;;;;16.61;55.02;99607.31;4950381;28;20043;-78
2021/05/16 02:14:33;;;;;;;3.50;1.40;;;;;;;16.53;55.32;99613.22;4933834;28;20126;-77
2021/05/16 02:17:04;;;;;;;3.25;1.65;;;;;;;16.48;55.91;99612.78;4933497;28;20046;-76
2021/05/16 02:19:31;;;;;;;3.88;1.48;;;;;;;16.35;55.85;99601.63;4952968;28;20075;-77
2021/05/16 02:21:59;;;;;;;5.00;1.50;;;;;;;16.31;56.31;99608.13;4953909;28;20098;-75
2021/05/16 02:24:33;;;;;;;;;;;;;;;16.26;57.00;99597.97;4950752;28;20545;-75
2021/05/16 02:27:07;;;;;;;4.85;1.83;;;;;;;16.14;56.80;99601.59;4940165;28;20305;-74
2021/05/16 02:29:45;;;;;;;2.20;1.70;;;;;;;16.04;56.94;99596.31;4950404;28;20052;-74
2021/05/16 02:32:13;;;;;;;2.88;1.65;;;;;;;16.08;57.34;99605.59;4934135;28;20043;-74
2021/05/16 02:34:44;;;;;;;4.28;1.50;;;;;;;16.06;57.43;99606.69;4934330;28;20047;-79
2021/05/16 02:37:16;;;;;;;4.97;1.80;;;;;;;16.06;57.50;99602.25;4935722;29;20086;-76
2021/05/16 02:39:44;;;;;;;5.00;2.00;;;;;;;16.07;57.02;99606.56;4950249;28;20047;-76
2021/05/16 02:42:12;;;;;;;5.47;1.70;;;;;;;15.94;57.77;99605.91;4950936;28;20542;-76
2021/05/16 02:44:40;;;;;;;2.00;1.60;;;;;;;16.01;57.06;99604.44;4937189;28;20081;-75
2021/05/16 02:47:07;;;;;;;2.80;1.35;;;;;;;16.01;56.72;99619.38;4933989;28;20062;-75
2021/05/16 02:49:34;;;;;;;3.83;2.00;;;;;;;16.07;56.78;99630.22;4951099;28;20107;-75
2021/05/16 02:52:01;;;;;;;4.10;1.48;;;;;;;16.19;55.76;99628.34;4950888;28;20050;-77
2021/05/16 02:54:34;;;;;;;5.65;2.28;;;;;;;15.86;56.51;99614.41;4937145;28;21203;-75
2021/05/16 02:57:03;;;;;;;5.47;1.42;;;;;;;15.82;56.43;99609.53;4934145;28;20170;-75
2021/05/16 02:59:30;;;;;;;5.85;1.70;;;;;;;15.74;56.79;99601.44;4950473;28;20043;-75
2021/05/16 03:01:58;;;;;;;2.38;1.17;;;;;;;15.73;57.24;99597.16;4952296;28;20102;-76
2021/05/16 03:04:26;;;;;;;2.60;1.60;;;;;;;15.70;57.07;99600.84;4950493;28;20054;-75
2021/05/16 03:06:53;;;;;;;6.18;1.88;;;;;;;15.84;55.99;99602.38;4950876;28;20490;-75
2021/05/16 03:09:20;;;;;;;4.40;1.80;;;;;;;15.90;55.96;99602.69;4933376;28;20046;-77
2021/05/16 03:11:49;;;;;;;4.20;1.75;;;;;;;15.77;56.74;99609.09;4948080;28;20067;-76
2021/05/16 03:14:16;;;;;;;1.75;1.23;;;;;;;15.68;57.27;99593.09;4949956;28;20049;-74
2021/05/16 03:16:44;;;;;;;2.78;1.65;;;;;;;15.73;56.09;99598.00;4949536;28;20142;-74
2021/05/16 03:19:12;;;;;;;4.60;2.08;;;;;;;15.68;56.52;99597.53;4934300;29;20035;-75
2021/05/16 03:21:44;;;;;;;1.80;1.60;;;;;;;15.63;56.99;99595.28;4950488;28;20047;-75
2021/05/16 03:24:11;;;;;;;1.67;1.27;;;;;;;15.60;56.73;99595.47;4950033;28;20075;-75
2021/05/16 03:26:41;;;;;;;3.60;1.48;;;;;;;15.72;56.40;99583.19;4950568;28;20049;-75
2021/05/16 03:29:09;;;;;;;4.43;1.52;;;;;;;15.65;57.24;99582.84;4950211;28;20611;-75
2021/05/16 03:31:37;;;;;;;3.20;1.35;;;;;;;15.61;57.63;99576.16;4950487;28;20040;-75
2021/05/16 03:34:06;;;;;;;6.03;1.80;;;;;;;15.59;57.52;99571.97;4951434;28;20072;-75
2021/05/16 03:36:33;;;;;;;1.25;1.17;;;;;;;15.59;57.65;99567.53;4950762;28;20147;-75
2021/05/16 03:39:00;;;;;;;2.85;1.95;;;;;;;15.58;57.34;99565.06;4950572;28;20509;-76
2021/05/16 03:41:27;;;;;;;1.50;1.40;;;;;;;15.68;56.89;99577.34;4949742;28;20066;-75
2021/05/16 03:43:54;;;;;;;3.20;1.77;;;;;;;15.52;57.30;99603.16;4949688;28;20067;-75
2021/05/16 03:46:20;;;;;;;3.72;1.55;;;;;;;15.38;58.02;99611.31;4949722;28;20110;-74
2021/05/16 03:48:47;;;;;;;5.40;1.90;;;;;;;15.23;58.16;99597.59;4948604;28;20094;-74
2021/05/16 03:51:15;;;;;;;4.05;2.15;;;;;;;15.27;58.25;99601.66;4949338;28;20113;-75
2021/05/16 03:53:42;;;;;;;2.30;1.60;;;;;;;15.27;58.41;99598.19;4949347;28;20569;-77
2021/05/16 03:56:09;;;;;;;5.72;2.17;;;;;;;15.31;58.42;99602.25;4949519;28;20047;-75
2021/05/16 03:58:37;;;;;;;3.17;1.80;;;;;;;15.22;58.68;99597.72;4949610;28;20447;-78
2021/05/16 04:01:04;;;;;;;3.58;2.08;;;;;;;15.38;58.06;99611.31;4950096;28;20039;-75
2021/05/16 04:03:31;;;;;;;5.88;2.20;;;;;;;15.28;58.32;99603.31;4948886;28;20086;-77
2021/05/16 04:05:58;;;;;;;5.65;2.42;;;;;;;15.38;58.40;99606.88;4949573;28;20512;-76
2021/05/16 04:08:25;;;;;;;2.50;1.70;;;;;;;15.38;58.06;99611.31;4949265;28;20039;-77
2021/05/16 04:10:52;;;;;;;5.30;2.25;;;;;;;15.51;57.63;99614.63;4949142;28;20043;-77
2021/05/16 04:13:19;;;;;;;5.82;2.38;;;;;;;15.51;57.71;99613.81;4948885;28;20106;-73
2021/05/16 04:15:46;;;;;;;5.28;1.85;;;;;;;15.51;57.78;99627.75;4950299;28;20143;-76
2021/05/16 04:18:13;;;;;;;4.60;1.80;;;;;;;15.52;57.48;99628.59;4949839;28;20520;-76
2021/05/16 04:20:40;;;;;;;5.97;1.73;;;;;;;15.58;57.22;99628.94;4949468;28;20090;-78
2021/05/16 04:23:07;;;;;;;5.45;2.10;;;;;;;15.58;57.33;99628.09;4949150;28;20070;-76
2021/05/16 04:25:34;;;;;;;2.95;2.20;;;;;;;15.58;57.43;99628.09;4949462;28;20039;-78
2021/05/16 04:28:01;;;;;;;3.22;2.05;;;;;;;15.56;57.59;99630.84;4949010;28;20063;-77
2021/05/16 04:30:28;;;;;;;7.65;2.47;;;;;;;15.58;57.57;99631.56;4948096;28;20043;-77
2021/05/16 04:32:55;;;;;;;5.10;1.73;;;;;;;15.61;57.69;99633.13;4948981;28;20054;-77
2021/05/16 04:35:22;;;;;;;4.22;1.83;;;;;;;15.57;57.83;99632.53;4948514;28;20544;-78
2021/05/16 04:37:49;;;;;;;4.75;2.78;;;;;;;15.64;57.55;99623.22;4952006;28;20414;-77
2021/05/16 04:40:16;;;;;;;5.50;1.73;;;;;;;15.66;57.28;99631.81;4951052;28;20386;-78
2021/05/16 04:42:43;;;;;;;2.47;1.63;;;;;;;15.83;56.54;99629.63;4951870;28;20039;-77
2021/05/16 04:45:11;;;;;;;3.00;2.35;;;;;;;15.75;57.12;99626.75;4961994;28;20074;-77
2021/05/16 04:47:38;;;;;;;6.35;1.52;;;;;;;15.77;57.17;99636.22;4955560;28;20053;-76
2021/05/16 04:50:05;;;;;;;3.92;2.20;;;;;;;15.86;56.64;99629.34;4955441;28;20514;-77
2021/05/16 04:52:34;;;;;;;6.90;2.00;;;;;;;15.80;57.24;99643.81;4955465;28;20047;-77
2021/05/16 04:55:01;;;;;;;5.80;1.48;;;;;;;15.81;57.07;99649.91;4954746;28;20062;-77
2021/05/16 04:57:28;;;;;;;4.57;2.05;;;;;;;15.85;57.24;99669.72;4955589;28;20067;-77
2021/05/16 04:59:57;;;;;;;2.20;1.80;;;;;;;15.92;57.00;99684.03;4954691;28;20122;-77
2021/05/16 05:02:24;;;;;;;2.28;1.30;;;;;;;15.98;56.88;99688.81;4955234;28;20047;-78
2021/05/16 05:04:52;;;;;;;4.68;1.60;;;;;;;15.96;57.18;99690.72;4955192;28;20490;-77
2021/05/16 05:07:19;;;;;;;1.70;1.40;;;;;;;15.89;57.82;99679.03;4955026;28;20043;-77
2021/05/16 05:09:45;;;;;;;2.90;1.50;;;;;;;15.95;57.49;99674.13;4954834;28;20071;-78
2021/05/16 05:12:12;;;;;;;2.17;1.80;;;;;;;15.91;57.85;99674.50;4954796;28;20059;-77
2021/05/16 05:14:39;;;;;;;5.80;1.45;;;;;;;15.86;58.20;99668.78;4955190;28;20051;-78
2021/05/16 05:17:06;;;;;;;6.15;1.75;;;;;;;15.99;57.96;99669.47;4961277;28;20062;-78
2021/05/16 05:19:33;;;;;;;3.88;1.55;;;;;;;16.02;57.83;99684.13;4962287;28;20051;-76
2021/05/16 05:22:00;;;;;;;8.77;2.72;;;;;;;16.00;57.81;99701.84;4955653;28;20525;-78
2021/05/16 05:24:28;;;;;;;2.45;1.45;;;;;;;16.03;57.79;99710.28;4953513;28;20130;-76
2021/05/16 05:26:59;;;;;;;3.80;1.80;;;;;;;16.11;57.56;99705.25;4958961;28;20047;-76
2021/05/16 05:29:26;;;;;;;6.35;1.88;;;;;;;15.98;59.64;99715.13;4965688;28;20133;-76
2021/05/16 05:31:52;;;;;;;6.65;2.30;;;;;;;16.00;59.62;99714.97;4967287;28;20070;-75
2021/05/16 05:34:20;;;;;;;3.70;1.70;;;;;;;16.04;59.85;99711.16;4957644;28;20126;-75
2021/05/16 05:36:47;;;;;;;4.90;2.10;;;;;;;16.10;59.33;99711.47;4958116;28;20055;-79
2021/05/16 05:39:14;;;;;;;4.22;3.05;;;;;;;16.16;58.55;99694.38;4939926;29;20138;-76
2021/05/16 05:41:44;;;;;;;11.35;3.80;;;;;;;16.19;58.23;99697.59;4957704;28;20094;-75
2021/05/16 05:44:12;;;;;;;5.28;2.83;;;;;;;16.31;57.88;99679.97;4942248;29;20064;-79
2021/05/16 05:46:39;;;;;;;3.05;2.15;;;;;;;16.31;58.07;99677.31;4959012;28;20561;-76
2021/05/16 05:49:07;;;;;;;5.60;3.10;;;;;;;16.39;57.91;99674.06;4960361;28;20451;-78
2021/05/16 05:51:34;;;;;;;4.90;2.40;;;;;;;16.47;58.05;99679.53;4941516;29;20126;-78
2021/05/16 05:54:03;;;;;;;4.95;2.95;;;;;;;16.54;57.99;99685.09;4954880;28;20114;-75
2021/05/16 05:56:30;;;;;;;6.22;2.72;;;;;;;16.58;57.66;99676.81;4956268;28;20043;-66
2021/05/16 05:58:57;;;;;;;14.00;3.92;;;;;;;16.62;57.62;99687.91;4957544;28;20494;-68
2021/05/16 06:01:24;;;;;;;6.00;3.03;;;;;;;16.68;57.49;99680.34;4956960;28;20039;-69
2021/05/16 06:03:51;;;;;;;7.18;4.45;;;;;;;16.74;57.29;99682.50;4957553;28;20095;-73
2021/05/16 06:06:17;;;;;;;6.43;5.68;;;;;;;16.77;56.90;99679.59;4959156;28;20058;-70
2021/05/16 06:08:44;;;;;;;6.72;5.45;;;;;;;16.88;56.47;99686.56;4957573;28;20465;-71
2021/05/16 06:11:11;;;;;;;8.98;5.80;;;;;;;16.97;56.57;99683.16;4955625;28;20063;-65
2021/05/16 06:13:38;;;;;;;6.95;6.22;;;;;;;16.99;56.44;99686.53;4957142;28;20035;-69
2021/05/16 06:16:05;;;;;;;9.95;6.75;;;;;;;17.14;56.19;99683.50;4953419;28;20494;-73
2021/05/16 06:18:32;;;;;;;8.35;6.88;;;;;;;17.37;55.95;99676.28;4952873;28;20043;-73
2021/05/16 06:20:59;;;;;;;7.72;7.03;;;;;;;17.63;55.40;99666.06;4953944;28;20043;-71
2021/05/16 06:23:33;;;;;;;7.90;6.82;;;;;;;17.74;54.71;99664.19;4955294;28;20134;-70
2021/05/16 06:26:00;;;;;;;13.43;9.13;;;;;;;18.07;53.74;99667.41;4955939;28;20039;-71
2021/05/16 06:28:27;;;;;;;8.35;6.95;;;;;;;18.38;53.42;99677.81;4955894;28;20495;-73
2021/05/16 06:30:54;;;;;;;7.63;6.90;;;;;;;18.55;52.40;99672.63;4956754;28;20094;-72
2021/05/16 06:33:21;;;;;;;9.85;7.70;;;;;;;18.78;51.62;99683.72;4956364;28;20040;-72
2021/05/16 06:35:47;;;;;;;10.65;8.68;;;;;;;18.82;50.50;99676.38;4956449;28;20134;-72
2021/05/16 06:38:15;;;;;;;11.20;10.02;;;;;;;18.72;50.56;99681.66;4956581;28;20051;-71
2021/05/16 06:40:42;;;;;;;8.40;7.50;;;;;;;18.81;50.65;99680.81;4955203;28;20043;-74
2021/05/16 06:43:11;;;;;;;12.88;8.35;;;;;;;18.91;50.23;99672.00;4956655;28;20098;-72
2021/05/16 06:45:38;;;;;;;9.45;8.45;;;;;;;19.00;49.79;99677.28;4956475;28;20126;-70
2021/05/16 06:48:07;;;;;;;9.82;8.93;;;;;;;19.10;49.86;99666.69;4950727;28;20449;-70
2021/05/16 06:50:34;;;;;;;14.18;9.68;;;;;;;18.90;50.27;99665.06;4957365;28;20443;-71
2021/05/16 06:53:01;;;;;;;10.05;8.90;;;;;;;19.11;50.23;99685.00;4956904;28;20047;-70
2021/05/16 06:55:27;;;;;;;10.27;9.27;;;;;;;19.22;49.55;99691.09;4956603;28;20079;-73
2021/05/16 06:57:54;;;;;;;10.30;9.15;;;;;;;19.33;49.84;99677.69;4957263;28;20046;-73
2021/05/16 07:00:21;;;;;;;13.98;8.00;;;;;;;19.65;49.44;99685.19;4963607;28;20047;-74
2021/05/16 07:02:49;;;;;;;8.75;8.00;;;;;;;19.71;49.19;99681.97;4938036;28;20126;-74
2021/05/16 07:05:15;;;;;;;8.60;7.82;;;;;;;19.82;48.47;99695.00;4958686;28;20045;-71
2021/05/16 07:07:42;;;;;;;9.93;7.80;;;;;;;19.68;48.94;99702.59;4955833;28;20051;-73
2021/05/16 07:10:10;;;;;;;8.93;8.02;;;;;;;19.84;48.60;99708.06;4955853;28;20486;-76
2021/05/16 07:12:36;;;;;;;10.13;9.13;;;;;;;19.62;48.86;99698.72;4955656;28;20075;-75
2021/05/16 07:15:04;;;;;;;9.57;8.68;;;;;;;19.79;48.72;99683.88;4955298;28;20110;-71
2021/05/16 07:17:31;;;;;;;14.10;8.57;;;;;;;20.11;47.51;99688.66;4957448;28;20066;-70
2021/05/16 07:19:58;;;;;;;9.40;8.55;;;;;;;20.22;46.91;99687.59;4955737;28;20114;-75
2021/05/16 07:22:25;;;;;;;7.15;6.45;;;;;;;20.14;47.28;99683.06;4956277;28;20039;-74
2021/05/16 07:24:52;;;;;;;7.10;6.35;;;;;;;20.10;46.91;99676.41;4955145;28;20130;-70
2021/05/16 07:27:18;;;;;;;6.07;5.47;;;;;;;20.29;46.93;99684.16;4955097;28;20098;-71
2021/05/16 07:29:47;;;;;;;11.10;6.68;;;;;;;20.30;47.58;99682.38;4955823;28;20066;-72
2021/05/16 07:32:14;;;;;;;7.38;6.47;;;;;;;20.06;48.37;99673.22;4956253;28;20083;-74
2021/05/16 07:34:41;;;;;;;8.50;6.72;;;;;;;20.08;48.05;99666.00;4941273;28;20078;-75
2021/05/16 07:37:08;;;;;;;16.90;6.90;;;;;;;20.14;47.74;99661.91;4955305;28;20051;-74
2021/05/16 07:39:35;;;;;;;7.13;4.90;;;;;;;19.98;47.93;99665.22;4956560;28;20149;-74
2021/05/16 07:42:02;;;;;;;7.65;6.47;;;;;;;19.95;48.03;99684.03;4954715;28;20050;-71
2021/05/16 07:44:30;;;;;;;10.40;5.53;;;;;;;19.98;48.30;99686.41;4955313;28;20043;-72
2021/05/16 07:46:57;;;;;;;7.95;5.85;;;;;;;19.84;48.75;99695.66;4954684;28;20489;-72
2021/05/16 07:49:23;;;;;;;7.10;6.40;;;;;;;19.71;49.79;99692.56;4954996;28;20506;-70
2021/05/16 07:51:50;;;;;;;8.52;6.78;;;;;;;19.57;50.66;99691.22;4955622;28;20081;-78
2021/05/16 07:54:17;;;;;;;12.57;10.00;;;;;;;19.21;51.46;99692.91;4954586;28;20082;-70
2021/05/16 07:56:45;;;;;;;9.77;8.77;;;;;;;19.09;52.24;99691.44;4955738;28;20481;-76
2021/05/16 07:59:12;;;;;;;13.38;8.73;;;;;;;18.95;53.76;99702.44;4958150;28;20078;-73
2021/05/16 08:01:39;;;;;;;9.82;8.90;;;;;;;18.83;54.46;99696.50;4953042;28;20423;-72
2021/05/16 08:04:06;;;;;;;11.32;7.93;;;;;;;18.84;54.51;99693.72;4955614;28;20446;-73
2021/05/16 08:06:33;;;;;;;9.38;7.30;;;;;;;18.86;54.36;99676.91;4953625;28;20383;-75
2021/05/16 08:09:00;;;;;;;9.20;7.75;;;;;;;18.55;55.31;99677.09;4953330;28;20522;-80
2021/05/16 08:11:27;;;;;;;8.27;6.88;;;;;;;18.55;55.70;99688.47;4955028;28;20093;-72
2021/05/16 08:13:54;;;;;;;11.73;7.03;;;;;;;18.58;55.32;99676.78;4954660;28;20399;-75
2021/05/16 08:16:21;;;;;;;13.38;8.57;;;;;;;18.47;54.55;99669.03;4953414;28;20553;-73
2021/05/16 08:18:50;;;;;;;9.88;7.05;;;;;;;18.49;53.96;99662.66;4948928;28;20071;-70
2021/05/16 08:21:17;;;;;;;14.65;7.47;;;;;;;18.45;54.60;99660.44;4949477;28;20525;-69
2021/05/16 08:23:44;;;;;;;8.43;6.90;;;;;;;18.64;54.57;99676.22;4954345;28;20081;-71
2021/05/16 08:26:11;;;;;;;8.20;6.88;;;;;;;18.70;54.20;99688.91;4951977;28;20059;-71
2021/05/16 08:28:38;;;;;;;10.55;7.35;;;;;;;18.69;53.20;99679.28;4951185;28;20098;-68
2021/05/16 08:31:05;;;;;;;23.27;9.30;;;;;;;18.77;53.88;99671.50;4955770;28;20043;-72
2021/05/16 08:33:32;;;;;;;8.82;6.40;;;;;;;18.91;53.85;99672.00;4959886;28;20133;-72
2021/05/16 08:35:59;;;;;;;8.52;7.30;;;;;;;18.95;53.58;99668.13;4962107;28;20137;-71
2021/05/16 08:38:26;;;;;;;8.77;7.53;;;;;;;19.01;53.68;99676.28;4960151;28;20047;-71
2021/05/16 08:40:53;;;;;;;11.52;8.55;;;;;;;18.91;53.30;99667.59;4964856;28;20067;-72
2021/05/16 08:43:20;;;;;;;8.95;8.05;;;;;;;19.05;53.05;99680.31;4957622;28;20490;-70
2021/05/16 08:45:48;;;;;;;9.80;8.45;;;;;;;19.00;52.98;99679.91;4937044;29;20051;-72
2021/05/16 08:48:15;;;;;;;10.10;8.30;;;;;;;19.04;53.36;99683.94;4954694;28;20039;-69
2021/05/16 08:50:42;;;;;;;11.63;8.02;;;;;;;19.09;52.85;99697.53;4951505;28;20039;-70
2021/05/16 08:53:09;;;;;;;11.50;10.05;;;;;;;19.17;52.62;99699.44;4952436;28;20086;-71
2021/05/16 08:55:36;;;;;;;11.65;10.02;;;;;;;18.98;53.46;99688.97;4952155;28;20501;-71
2021/05/16 08:58:04;;;;;;;10.02;8.98;;;;;;;19.16;52.92;99696.97;4951841;28;20490;-74
2021/05/16 09:00:43;;;;;;;16.42;8.77;;;;;;;19.04;53.71;99693.66;4952288;28;20123;-70
2021/05/16 09:03:18;;;;;;;10.02;9.00;;;;;;;18.94;54.17;99698.16;4957251;28;20043;-69
2021/05/16 09:05:54;;;;;;;12.60;9.85;;;;;;;19.05;53.83;99703.25;4953613;28;20055;-69
2021/05/16 09:08:25;;;;;;;9.77;8.85;;;;;;;18.92;54.44;99711.50;4951107;28;20051;-67
2021/05/16 09:10:59;;;;;;;10.18;8.25;;;;;;;18.97;53.94;99703.16;4936620;29;20066;-68
2021/05/16 09:13:27;;;;;;;8.68;7.72;;;;;;;19.08;54.60;99695.88;4953724;28;20499;-67
2021/05/16 09:16:05;;;;;;;8.60;7.03;;;;;;;19.04;54.64;99705.06;4954169;28;20489;-67
2021/05/16 09:18:41;;;;;;;10.10;7.95;;;;;;;19.09;55.01;99696.72;4953777;28;20050;-67
2021/05/16 09:21:29;;;;;;;10.07;7.07;;;;;;;18.94;55.27;99696.34;4951119;28;20063;-67
2021/05/16 09:23:59;;;;;;;8.13;6.90;;;;;;;18.93;55.08;99707.06;4936655;29;20475;-67
2021/05/16 09:26:27;;;;;;;12.27;8.00;;;;;;;19.04;54.89;99717.44;4952248;28;20055;-67
2021/05/16 09:28:54;;;;;;;14.55;7.43;;;;;;;19.23;54.76;99713.88;4951421;28;20070;-68
2021/05/16 09:31:35;;;;;;;9.70;6.75;;;;;;;19.41;53.36;99714.81;4953134;28;20387;-67
2021/05/16 09:34:05;;;;;;;8.70;7.03;;;;;;;19.33;52.65;99707.63;4952692;28;20039;-67
2021/05/16 09:36:33;;;;;;;9.77;6.40;;;;;;;19.36;52.67;99715.25;4950866;28;20058;-67
2021/05/16 09:39:25;;;;;;;7.95;6.93;;;;;;;19.54;52.43;99709.16;4952689;28;20054;-67
2021/05/16 09:42:03;;;;;;;8.48;7.47;;;;;;;19.71;52.04;99712.84;4945217;28;20143;-66
2021/05/16 09:44:32;;;;;;;9.02;6.72;;;;;;;19.71;51.98;99712.84;4945085;28;20044;-68
2021/05/16 09:47:07;;;;;;;12.18;7.72;;;;;;;19.53;52.04;99707.50;4944855;28;21041;-67
2021/05/16 09:49:34;;;;;;;11.30;7.70;;;;;;;19.55;51.91;99706.41;4944332;28;20047;-66
2021/05/16 09:52:30;;;;;;;10.98;7.18;;;;;;;19.55;52.23;99697.63;4944352;28;20098;-65
2021/05/16 09:54:58;;;;;;;10.85;7.38;;;;;;;19.55;52.68;99714.31;4936141;28;20286;-65
2021/05/16 09:57:34;;;;;;;10.57;7.32;;;;;;;19.67;52.35;99706.22;4950328;28;20067;-70
2021/05/16 10:00:08;;;;;;;8.13;7.13;;;;;;;19.64;52.97;99715.25;4957891;28;20051;-72
2021/05/16 10:02:37;;;;;;;8.73;7.65;;;;;;;19.66;53.63;99715.97;4973259;28;20134;-67
2021/05/16 10:05:07;;;;;;;11.65;8.68;;;;;;;19.70;54.20;99719.97;4974474;28;20043;-67
2021/05/16 10:07:34;;;;;;;10.35;8.23;;;;;;;19.66;53.75;99721.25;4957174;28;20046;-68
2021/05/16 10:10:02;;;;;;;10.45;8.25;;;;;;;19.48;54.22;99715.03;4969594;28;20043;-70
2021/05/16 10:12:29;;;;;;;12.43;8.57;;;;;;;19.30;56.10;99710.53;4959750;28;20565;-67
2021/05/16 10:15:13;;;;;;;9.95;8.93;;;;;;;19.16;55.33;99713.63;4959247;28;20047;-68
2021/05/16 10:17:42;;;;;;;10.10;9.00;;;;;;;19.01;55.55;99709.78;4956083;28;20031;-63
2021/05/16 10:20:15;;;;;;;12.55;8.55;;;;;;;19.16;56.01;99711.00;4940373;28;20071;-67
2021/05/16 10:22:52;;;;;;;10.65;8.45;;;;;;;19.19;55.71;99713.38;4954466;28;20090;-66
2021/05/16 10:25:42;;;;;;;8.65;7.78;;;;;;;19.35;55.81;99713.56;4956130;28;20047;-75
2021/05/16 10:28:16;;;;;;;9.52;8.23;;;;;;;19.45;55.70;99710.91;4950895;28;20099;-77
2021/05/16 10:31:03;;;;;;;10.23;7.03;;;;;;;19.51;56.01;99701.53;4954435;28;20183;-74
2021/05/16 10:33:35;;;;;;;13.55;7.93;;;;;;;19.50;56.50;99697.25;4956915;28;20070;-74
2021/05/16 10:36:03;;;;;;;8.07;7.35;;;;;;;19.30;55.63;99684.13;4956092;28;20050;-75
2021/05/16 10:38:38;;;;;;;8.60;6.53;;;;;;;19.60;55.10;99692.75;4956137;28;20035;-74
2021/05/16 10:41:19;;;;;;;8.95;6.30;;;;;;;19.60;54.62;99690.97;4955783;28;20465;-72
2021/05/16 10:43:46;;;;;;;8.02;5.20;;;;;;;19.73;54.01;99690.59;4950800;28;20077;-72
2021/05/16 10:46:38;;;;;;;11.02;6.78;;;;;;;19.55;54.63;99684.41;4955699;28;20540;-72
2021/05/16 10:49:52;;;;;;;9.73;6.15;;;;;;;19.63;53.73;99682.72;4955667;28;20055;-72
2021/05/16 10:52:29;;;;;;;5.88;4.25;;;;;;;19.78;54.50;99688.34;4869905;29;20041;-73
2021/05/16 10:54:58;;;;;;;11.10;6.72;;;;;;;19.77;53.80;99686.69;4953272;28;20054;-74
2021/05/16 10:57:35;;;;;;;5.85;4.68;;;;;;;19.66;53.20;99681.59;4955660;28;20466;-74
2021/05/16 11:00:24;;;;;;;7.18;5.78;;;;;;;19.81;53.56;99677.44;4955843;28;20069;-76
2021/05/16 11:03:02;;;;;;;8.20;5.45;;;;;;;19.82;54.50;99684.41;4951667;28;20501;-71
2021/05/16 11:05:47;;;;;;;8.50;5.20;;;;;;;19.82;55.34;99679.13;4971434;28;20053;-70
2021/05/16 11:08:16;;;;;;;;;;;;;;;19.81;55.14;99680.09;4975081;28;20047;-69
2021/05/16 11:10:51;;;;;;;8.13;7.10;;;;;;;19.66;56.08;99678.94;4959989;28;19944;-74
2021/05/16 11:13:27;;;;;;;6.93;5.85;;;;;;;19.71;56.79;99687.28;4955477;28;20466;-73
2021/05/16 11:15:56;;;;;;;10.13;7.05;;;;;;;19.67;57.04;99672.69;4955858;28;20142;-72
2021/05/16 11:18:23;;;;;;;7.90;6.82;;;;;;;19.74;55.79;99665.81;4954870;28;20070;-69
2021/05/16 11:21:01;;;;;;;8.13;6.85;;;;;;;19.79;55.39;99668.00;4954794;28;20066;-74
2021/05/16 11:23:31;;;;;;;7.68;5.82;;;;;;;19.91;55.19;99660.69;4955677;28;20051;-72
2021/05/16 11:25:59;;;;;;;9.65;6.63;;;;;;;20.05;55.00;99657.50;4955110;28;20070;-73
2021/05/16 11:28:28;;;;;;;7.43;6.18;;;;;;;20.13;54.61;99657.56;4956290;28;20039;-75
2021/05/16 11:30:56;;;;;;;7.47;6.63;;;;;;;19.96;54.33;99663.69;4938669;29;20067;-74
2021/05/16 11:33:36;;;;;;;12.68;7.32;;;;;;;19.75;54.95;99667.47;4938083;29;20066;-75
2021/05/16 11:36:08;;;;;;;9.93;5.90;;;;;;;19.99;55.27;99661.59;4955564;28;20517;-74
2021/05/16 11:38:36;;;;;;;6.63;5.82;;;;;;;20.00;55.68;99650.03;4954431;28;20043;-74
2021/05/16 11:41:04;;;;;;;7.85;3.55;;;;;;;20.06;54.64;99662.66;4952439;28;20035;-74